SWQ3653 KELP-MGGT
Flight info
| Callsign | SWQ3653 |
|---|---|
| Flight time | 3h 14m |
| Altitude | 37000 |
| Route | NEVUE3 FST DCT KOBLE DCT DLF DCT LRD DCT MABUS DCT MAM UT151 VER UA552 GABEN GABEN2C |
| Aircraft | B738/M-SDE2E3FGHIRWXY/LB1 |
Departure
| Time | 2026-05-05 15:18 |
|---|---|
| Airport | El Paso International Airport (KELP) |
Arrival
| Time | 2026-05-05 18:33 |
|---|---|
| Airport | La Aurora International Airport (MGGT) |
| Time | Latitude | Longitude | Altitude | Speed | Heading |
|---|---|---|---|---|---|
| 2026-05-05 14:55 | 31.81863 | -106.36731 | 3955 ft | 0 kts | 140° |
| 2026-05-05 15:07 | 31.81866 | -106.36734 | 3956 ft | 3 kts | 143° |
| 2026-05-05 15:07 | 31.81885 | -106.36740 | 3955 ft | 4 kts | 210° |
| 2026-05-05 15:07 | 31.81904 | -106.36722 | 3956 ft | 2 kts | 228° |
| 2026-05-05 15:07 | 31.81907 | -106.36717 | 3956 ft | 1 kts | 228° |
| 2026-05-05 15:14 | 31.81901 | -106.36734 | 3955 ft | 6 kts | 264° |
| 2026-05-05 15:15 | 31.81938 | -106.36752 | 3956 ft | 6 kts | 357° |
| 2026-05-05 15:15 | 31.81983 | -106.36749 | 3955 ft | 6 kts | 5° |
| 2026-05-05 15:15 | 31.82026 | -106.36762 | 3955 ft | 7 kts | 330° |
| 2026-05-05 15:15 | 31.82069 | -106.36801 | 3955 ft | 9 kts | 321° |
| 2026-05-05 15:16 | 31.82117 | -106.36846 | 3955 ft | 9 kts | 321° |
| 2026-05-05 15:16 | 31.82163 | -106.36891 | 3957 ft | 9 kts | 320° |
| 2026-05-05 15:16 | 31.82209 | -106.36935 | 3957 ft | 8 kts | 320° |
| 2026-05-05 15:16 | 31.82251 | -106.36985 | 3957 ft | 9 kts | 312° |
| 2026-05-05 15:17 | 31.82266 | -106.37052 | 3958 ft | 9 kts | 242° |
| 2026-05-05 15:17 | 31.82178 | -106.37173 | 3954 ft | 50 kts | 229° |
| 2026-05-05 15:17 | 31.81784 | -106.37719 | 3953 ft | 123 kts | 230° |
| 2026-05-05 15:17 | 31.81106 | -106.38676 | 3979 ft | 180 kts | 231° |
| 2026-05-05 15:18 | 31.80205 | -106.39922 | 4330 ft | 212 kts | 230° |
| 2026-05-05 15:18 | 31.79160 | -106.41176 | 5011 ft | 226 kts | 213° |
| 2026-05-05 15:18 | 31.77630 | -106.41532 | 5584 ft | 229 kts | 169° |
| 2026-05-05 15:18 | 31.76270 | -106.40610 | 6190 ft | 230 kts | 128° |
| 2026-05-05 15:19 | 31.75537 | -106.38974 | 6833 ft | 226 kts | 116° |
| 2026-05-05 15:19 | 31.74844 | -106.37312 | 7392 ft | 228 kts | 119° |
| 2026-05-05 15:19 | 31.74053 | -106.35594 | 7559 ft | 249 kts | 121° |
| 2026-05-05 15:19 | 31.73160 | -106.33753 | 7742 ft | 268 kts | 122° |
| 2026-05-05 15:20 | 31.72214 | -106.31843 | 8107 ft | 277 kts | 121° |
| 2026-05-05 15:20 | 31.71319 | -106.29815 | 8574 ft | 283 kts | 117° |
| 2026-05-05 15:20 | 31.70439 | -106.27666 | 8804 ft | 302 kts | 117° |
| 2026-05-05 15:20 | 31.69512 | -106.25412 | 9381 ft | 309 kts | 117° |
| 2026-05-05 15:21 | 31.68565 | -106.23137 | 10120 ft | 311 kts | 118° |
| 2026-05-05 15:21 | 31.67590 | -106.20813 | 10503 ft | 328 kts | 118° |
| 2026-05-05 15:21 | 31.66489 | -106.18368 | 10661 ft | 350 kts | 121° |
| 2026-05-05 15:21 | 31.65264 | -106.15805 | 10890 ft | 369 kts | 121° |
| 2026-05-05 15:22 | 31.63982 | -106.13152 | 11352 ft | 377 kts | 121° |
| 2026-05-05 15:22 | 31.62688 | -106.10458 | 12020 ft | 381 kts | 121° |
| 2026-05-05 15:22 | 31.61389 | -106.07734 | 12712 ft | 383 kts | 121° |
| 2026-05-05 15:22 | 31.60087 | -106.04992 | 13364 ft | 387 kts | 122° |
| 2026-05-05 15:23 | 31.58779 | -106.02236 | 13948 ft | 393 kts | 122° |
| 2026-05-05 15:23 | 31.57385 | -105.99450 | 14525 ft | 396 kts | 126° |
| 2026-05-05 15:23 | 31.55841 | -105.96756 | 15149 ft | 399 kts | 129° |
| 2026-05-05 15:23 | 31.54249 | -105.94089 | 15717 ft | 404 kts | 129° |
| 2026-05-05 15:24 | 31.52631 | -105.91375 | 16282 ft | 408 kts | 129° |
| 2026-05-05 15:24 | 31.51008 | -105.88617 | 16804 ft | 413 kts | 129° |
| 2026-05-05 15:24 | 31.49378 | -105.85817 | 17330 ft | 418 kts | 129° |
| 2026-05-05 15:24 | 31.47780 | -105.82931 | 17842 ft | 426 kts | 123° |
| 2026-05-05 15:25 | 31.46794 | -105.79636 | 18322 ft | 440 kts | 105° |
| 2026-05-05 15:25 | 31.46199 | -105.76103 | 18829 ft | 445 kts | 104° |
| 2026-05-05 15:25 | 31.45621 | -105.72517 | 19252 ft | 450 kts | 104° |
| 2026-05-05 15:25 | 31.45044 | -105.68942 | 19712 ft | 454 kts | 104° |
| 2026-05-05 15:26 | 31.44444 | -105.65292 | 20199 ft | 457 kts | 105° |
| 2026-05-05 15:26 | 31.43830 | -105.61615 | 20632 ft | 461 kts | 105° |
| 2026-05-05 15:26 | 31.43197 | -105.57906 | 21015 ft | 464 kts | 105° |
| 2026-05-05 15:26 | 31.42564 | -105.54227 | 21370 ft | 468 kts | 105° |
| 2026-05-05 15:27 | 31.41913 | -105.50468 | 21704 ft | 472 kts | 105° |
| 2026-05-05 15:27 | 31.41253 | -105.46683 | 22085 ft | 474 kts | 105° |
| 2026-05-05 15:27 | 31.40588 | -105.42867 | 22450 ft | 478 kts | 105° |
| 2026-05-05 15:27 | 31.39926 | -105.39098 | 22782 ft | 481 kts | 105° |
| 2026-05-05 15:28 | 31.39251 | -105.35233 | 23158 ft | 484 kts | 105° |
| 2026-05-05 15:28 | 31.38571 | -105.31351 | 23483 ft | 486 kts | 105° |
| 2026-05-05 15:28 | 31.37901 | -105.27505 | 23780 ft | 490 kts | 105° |
| 2026-05-05 15:28 | 31.37205 | -105.23570 | 24149 ft | 493 kts | 106° |
| 2026-05-05 15:29 | 31.36566 | -105.19976 | 24440 ft | 496 kts | 105° |
| 2026-05-05 15:29 | 31.35861 | -105.16000 | 24779 ft | 498 kts | 105° |
| 2026-05-05 15:29 | 31.35163 | -105.12066 | 25087 ft | 501 kts | 105° |
| 2026-05-05 15:29 | 31.34449 | -105.08046 | 25359 ft | 504 kts | 105° |
| 2026-05-05 15:30 | 31.33731 | -105.04012 | 25612 ft | 508 kts | 105° |
| 2026-05-05 15:30 | 31.33006 | -104.99942 | 25883 ft | 511 kts | 106° |
| 2026-05-05 15:30 | 31.32285 | -104.95901 | 26176 ft | 513 kts | 106° |
| 2026-05-05 15:30 | 31.31552 | -104.91803 | 26462 ft | 515 kts | 106° |
| 2026-05-05 15:31 | 31.30817 | -104.87697 | 26793 ft | 517 kts | 106° |
| 2026-05-05 15:31 | 31.30069 | -104.83537 | 26914 ft | 523 kts | 106° |
| 2026-05-05 15:31 | 31.29570 | -104.80771 | 27018 ft | 525 kts | 106° |
| 2026-05-05 15:31 | 31.28568 | -104.75198 | 27406 ft | 527 kts | 106° |
| 2026-05-05 15:32 | 31.28065 | -104.72408 | 27606 ft | 527 kts | 106° |
| 2026-05-05 15:32 | 31.27060 | -104.66841 | 27934 ft | 529 kts | 106° |
| 2026-05-05 15:32 | 31.26551 | -104.64031 | 28051 ft | 532 kts | 106° |
| 2026-05-05 15:32 | 31.25776 | -104.59766 | 28259 ft | 535 kts | 106° |
| 2026-05-05 15:33 | 31.24998 | -104.55492 | 28502 ft | 537 kts | 106° |
| 2026-05-05 15:33 | 31.24229 | -104.51271 | 28724 ft | 538 kts | 106° |
| 2026-05-05 15:33 | 31.23446 | -104.46986 | 28916 ft | 541 kts | 106° |
| 2026-05-05 15:33 | 31.22652 | -104.42646 | 29090 ft | 543 kts | 106° |
| 2026-05-05 15:34 | 31.21866 | -104.38360 | 29273 ft | 545 kts | 106° |
| 2026-05-05 15:34 | 31.21066 | -104.34001 | 29458 ft | 547 kts | 106° |
| 2026-05-05 15:34 | 31.20270 | -104.29679 | 29635 ft | 549 kts | 106° |
| 2026-05-05 15:34 | 31.19462 | -104.25295 | 29884 ft | 550 kts | 106° |
| 2026-05-05 15:35 | 31.18655 | -104.20928 | 30175 ft | 549 kts | 106° |
| 2026-05-05 15:35 | 31.17846 | -104.16553 | 30498 ft | 548 kts | 106° |
| 2026-05-05 15:35 | 31.16785 | -104.10833 | 30873 ft | 548 kts | 106° |
| 2026-05-05 15:35 | 31.16245 | -104.07929 | 31066 ft | 547 kts | 106° |
| 2026-05-05 15:36 | 31.15433 | -104.03570 | 31348 ft | 547 kts | 106° |
| 2026-05-05 15:36 | 31.14620 | -103.99215 | 31624 ft | 546 kts | 106° |
| 2026-05-05 15:36 | 31.13818 | -103.94926 | 31896 ft | 546 kts | 106° |
| 2026-05-05 15:36 | 31.13004 | -103.90583 | 32209 ft | 545 kts | 106° |
| 2026-05-05 15:37 | 31.12188 | -103.86238 | 32464 ft | 545 kts | 106° |
| 2026-05-05 15:37 | 31.11386 | -103.81972 | 32750 ft | 543 kts | 106° |
| 2026-05-05 15:37 | 31.10571 | -103.77646 | 33035 ft | 543 kts | 106° |
| 2026-05-05 15:37 | 31.09754 | -103.73320 | 33269 ft | 543 kts | 106° |
| 2026-05-05 15:38 | 31.08947 | -103.69058 | 33479 ft | 544 kts | 106° |
| 2026-05-05 15:38 | 31.08131 | -103.64750 | 33752 ft | 542 kts | 106° |
| 2026-05-05 15:38 | 31.07312 | -103.60440 | 34072 ft | 540 kts | 106° |
| 2026-05-05 15:38 | 31.06506 | -103.56200 | 34315 ft | 540 kts | 106° |
| 2026-05-05 15:39 | 31.05686 | -103.51903 | 34531 ft | 541 kts | 106° |
| 2026-05-05 15:39 | 31.04878 | -103.47670 | 34799 ft | 539 kts | 106° |
| 2026-05-05 15:39 | 31.04061 | -103.43393 | 35123 ft | 536 kts | 106° |
| 2026-05-05 15:39 | 31.03248 | -103.39151 | 35385 ft | 535 kts | 106° |
| 2026-05-05 15:40 | 31.02441 | -103.34956 | 35577 ft | 534 kts | 106° |
| 2026-05-05 15:40 | 31.01623 | -103.30710 | 35738 ft | 535 kts | 106° |
| 2026-05-05 15:40 | 31.00801 | -103.26452 | 35931 ft | 535 kts | 106° |
| 2026-05-05 15:40 | 30.99993 | -103.22269 | 36199 ft | 532 kts | 106° |
| 2026-05-05 15:41 | 30.99180 | -103.18059 | 36511 ft | 529 kts | 105° |
| 2026-05-05 15:41 | 30.98369 | -103.13875 | 36834 ft | 525 kts | 106° |
| 2026-05-05 15:41 | 30.97564 | -103.09728 | 37039 ft | 523 kts | 106° |
| 2026-05-05 15:42 | 30.95966 | -103.01523 | 37009 ft | 517 kts | 106° |
| 2026-05-05 15:42 | 30.94893 | -102.97559 | 36975 ft | 506 kts | 121° |
| 2026-05-05 15:42 | 30.93065 | -102.94142 | 37015 ft | 490 kts | 135° |
| 2026-05-05 15:43 | 30.88766 | -102.88007 | 37014 ft | 494 kts | 137° |
| 2026-05-05 15:43 | 30.84335 | -102.81803 | 37010 ft | 499 kts | 136° |
| 2026-05-05 15:44 | 30.79927 | -102.75512 | 36999 ft | 502 kts | 135° |
| 2026-05-05 15:44 | 30.75556 | -102.69205 | 36993 ft | 501 kts | 135° |
| 2026-05-05 15:45 | 30.71216 | -102.62929 | 36998 ft | 494 kts | 135° |
| 2026-05-05 15:45 | 30.66910 | -102.56728 | 37000 ft | 494 kts | 135° |
| 2026-05-05 15:46 | 30.62584 | -102.50519 | 37020 ft | 496 kts | 135° |
| 2026-05-05 15:46 | 30.58236 | -102.44289 | 37014 ft | 498 kts | 135° |
| 2026-05-05 15:47 | 30.53871 | -102.38038 | 37014 ft | 499 kts | 135° |
| 2026-05-05 15:47 | 30.49480 | -102.31758 | 37009 ft | 499 kts | 135° |
| 2026-05-05 15:48 | 30.45105 | -102.25512 | 37007 ft | 497 kts | 135° |
| 2026-05-05 15:48 | 30.40759 | -102.19315 | 37007 ft | 495 kts | 135° |
| 2026-05-05 15:49 | 30.36417 | -102.13137 | 36996 ft | 493 kts | 135° |
| 2026-05-05 15:49 | 30.32123 | -102.07036 | 36993 ft | 490 kts | 135° |
| 2026-05-05 15:50 | 30.27831 | -102.00945 | 36994 ft | 487 kts | 135° |
| 2026-05-05 15:50 | 30.23547 | -101.94880 | 37001 ft | 487 kts | 135° |
| 2026-05-05 15:51 | 30.19263 | -101.88823 | 37002 ft | 486 kts | 135° |
| 2026-05-05 15:51 | 30.14976 | -101.82770 | 37003 ft | 486 kts | 135° |
| 2026-05-05 15:52 | 30.10681 | -101.76719 | 36996 ft | 487 kts | 135° |
| 2026-05-05 15:52 | 30.06410 | -101.70705 | 37004 ft | 488 kts | 135° |
| 2026-05-05 15:53 | 30.02096 | -101.64640 | 36998 ft | 489 kts | 135° |
| 2026-05-05 15:53 | 29.97762 | -101.58554 | 36990 ft | 491 kts | 135° |
| 2026-05-05 15:54 | 29.93419 | -101.52465 | 36985 ft | 492 kts | 135° |
| 2026-05-05 15:54 | 29.89060 | -101.46364 | 36977 ft | 493 kts | 135° |
| 2026-05-05 15:55 | 29.84679 | -101.40340 | 36968 ft | 492 kts | 137° |
| 2026-05-05 15:55 | 29.80146 | -101.34435 | 36968 ft | 491 kts | 137° |
| 2026-05-05 15:56 | 29.75577 | -101.28521 | 36958 ft | 491 kts | 137° |
| 2026-05-05 15:56 | 29.71073 | -101.22654 | 36953 ft | 491 kts | 137° |
| 2026-05-05 15:57 | 29.66558 | -101.16759 | 36942 ft | 491 kts | 137° |
| 2026-05-05 15:57 | 29.62041 | -101.10864 | 36932 ft | 490 kts | 137° |
| 2026-05-05 15:58 | 29.57528 | -101.04988 | 36936 ft | 490 kts | 137° |
| 2026-05-05 15:58 | 29.53020 | -100.99125 | 36928 ft | 489 kts | 137° |
| 2026-05-05 15:59 | 29.48520 | -100.93284 | 36929 ft | 488 kts | 138° |
| 2026-05-05 15:59 | 29.44016 | -100.87445 | 36924 ft | 488 kts | 138° |
| 2026-05-05 16:00 | 29.39553 | -100.81666 | 36923 ft | 488 kts | 138° |
| 2026-05-05 16:00 | 29.34803 | -100.76172 | 36900 ft | 479 kts | 150° |
| 2026-05-05 16:01 | 29.29276 | -100.72024 | 36903 ft | 475 kts | 156° |
| 2026-05-05 16:01 | 29.23667 | -100.68020 | 36894 ft | 474 kts | 155° |
| 2026-05-05 16:02 | 29.18097 | -100.63996 | 36890 ft | 473 kts | 155° |
| 2026-05-05 16:02 | 29.12544 | -100.59947 | 36910 ft | 474 kts | 155° |
| 2026-05-05 16:03 | 29.06979 | -100.55880 | 36915 ft | 475 kts | 155° |
| 2026-05-05 16:03 | 29.01407 | -100.51813 | 36913 ft | 476 kts | 155° |
| 2026-05-05 16:04 | 28.95807 | -100.47731 | 36906 ft | 477 kts | 155° |
| 2026-05-05 16:04 | 28.90271 | -100.43700 | 36921 ft | 477 kts | 155° |
| 2026-05-05 16:05 | 28.84616 | -100.39588 | 36924 ft | 476 kts | 155° |
| 2026-05-05 16:05 | 28.79062 | -100.35557 | 36921 ft | 475 kts | 155° |
| 2026-05-05 16:06 | 28.73491 | -100.31518 | 36921 ft | 474 kts | 155° |
| 2026-05-05 16:06 | 28.67921 | -100.27485 | 36924 ft | 473 kts | 155° |
| 2026-05-05 16:07 | 28.62368 | -100.23470 | 36928 ft | 472 kts | 155° |
| 2026-05-05 16:07 | 28.56817 | -100.19461 | 36933 ft | 471 kts | 155° |
| 2026-05-05 16:08 | 28.51319 | -100.15496 | 36915 ft | 471 kts | 155° |
| 2026-05-05 16:08 | 28.45777 | -100.11504 | 36918 ft | 471 kts | 155° |
| 2026-05-05 16:09 | 28.40241 | -100.07521 | 36922 ft | 470 kts | 155° |
| 2026-05-05 16:09 | 28.34702 | -100.03540 | 36922 ft | 471 kts | 156° |
| 2026-05-05 16:10 | 28.29165 | -99.99568 | 36929 ft | 471 kts | 155° |
| 2026-05-05 16:10 | 28.23669 | -99.95628 | 36930 ft | 471 kts | 156° |
| 2026-05-05 16:11 | 28.18107 | -99.91646 | 36930 ft | 471 kts | 156° |
| 2026-05-05 16:12 | 28.07027 | -99.83729 | 36924 ft | 471 kts | 156° |
| 2026-05-05 16:13 | 27.93112 | -99.73813 | 36907 ft | 472 kts | 155° |
| 2026-05-05 16:13 | 27.87573 | -99.69875 | 36901 ft | 472 kts | 155° |
| 2026-05-05 16:14 | 27.76455 | -99.61985 | 36885 ft | 472 kts | 155° |
| 2026-05-05 16:15 | 27.65316 | -99.54096 | 36870 ft | 473 kts | 155° |
| 2026-05-05 16:16 | 27.54159 | -99.46214 | 36859 ft | 473 kts | 155° |
| 2026-05-05 16:17 | 27.46065 | -99.39777 | 36848 ft | 485 kts | 140° |
| 2026-05-05 16:18 | 27.39233 | -99.31351 | 36870 ft | 487 kts | 137° |
| 2026-05-05 16:19 | 27.33183 | -99.23833 | 36858 ft | 486 kts | 138° |
| 2026-05-05 16:19 | 27.26283 | -99.15408 | 36851 ft | 486 kts | 138° |
| 2026-05-05 16:20 | 27.17103 | -99.04260 | 36847 ft | 486 kts | 138° |
| 2026-05-05 16:22 | 27.05639 | -98.90367 | 36850 ft | 485 kts | 138° |
| 2026-05-05 16:23 | 26.96447 | -98.79259 | 36847 ft | 485 kts | 138° |
| 2026-05-05 16:23 | 26.89585 | -98.70984 | 36852 ft | 485 kts | 138° |
| 2026-05-05 16:24 | 26.84976 | -98.65434 | 36837 ft | 485 kts | 138° |
| 2026-05-05 16:25 | 26.78088 | -98.57156 | 36828 ft | 485 kts | 137° |
| 2026-05-05 16:25 | 26.71204 | -98.48899 | 36832 ft | 485 kts | 137° |
| 2026-05-05 16:26 | 26.61991 | -98.37869 | 36826 ft | 485 kts | 137° |
| 2026-05-05 16:27 | 26.57395 | -98.32380 | 36816 ft | 485 kts | 137° |
| 2026-05-05 16:27 | 26.52802 | -98.26902 | 36818 ft | 485 kts | 137° |
| 2026-05-05 16:28 | 26.48171 | -98.21383 | 36816 ft | 485 kts | 137° |
| 2026-05-05 16:28 | 26.43584 | -98.15922 | 36813 ft | 485 kts | 137° |
| 2026-05-05 16:29 | 26.38959 | -98.10423 | 36813 ft | 485 kts | 137° |
| 2026-05-05 16:29 | 26.34318 | -98.04914 | 36814 ft | 485 kts | 137° |
| 2026-05-05 16:30 | 26.32782 | -98.03092 | 36814 ft | 485 kts | 137° |
| 2026-05-05 16:30 | 26.29062 | -97.98682 | 36826 ft | 485 kts | 137° |
| 2026-05-05 16:31 | 26.24429 | -97.93195 | 36831 ft | 485 kts | 137° |
| 2026-05-05 16:31 | 26.19788 | -97.87706 | 36833 ft | 484 kts | 137° |
| 2026-05-05 16:32 | 26.15183 | -97.82267 | 36831 ft | 484 kts | 137° |
| 2026-05-05 16:32 | 26.10545 | -97.76794 | 36834 ft | 484 kts | 137° |
| 2026-05-05 16:33 | 26.05832 | -97.71466 | 36832 ft | 481 kts | 144° |
| 2026-05-05 16:33 | 26.00327 | -97.67448 | 36849 ft | 474 kts | 155° |
| 2026-05-05 16:34 | 25.94580 | -97.63806 | 36843 ft | 474 kts | 155° |
| 2026-05-05 16:34 | 25.88890 | -97.60122 | 36852 ft | 475 kts | 154° |
| 2026-05-05 16:35 | 25.83176 | -97.56374 | 36849 ft | 475 kts | 154° |
| 2026-05-05 16:35 | 25.77377 | -97.52981 | 36848 ft | 469 kts | 165° |
| 2026-05-05 16:36 | 25.71099 | -97.51385 | 36861 ft | 457 kts | 179° |
| 2026-05-05 16:36 | 25.64796 | -97.50555 | 36849 ft | 458 kts | 179° |
| 2026-05-05 16:37 | 25.58454 | -97.49687 | 36853 ft | 459 kts | 178° |
| 2026-05-05 16:37 | 25.52146 | -97.48777 | 36850 ft | 460 kts | 178° |
| 2026-05-05 16:38 | 25.45780 | -97.47849 | 36851 ft | 460 kts | 178° |
| 2026-05-05 16:38 | 25.39463 | -97.46931 | 36850 ft | 460 kts | 178° |
| 2026-05-05 16:39 | 25.33088 | -97.46010 | 36850 ft | 460 kts | 178° |
| 2026-05-05 16:39 | 25.26766 | -97.45103 | 36852 ft | 460 kts | 178° |
| 2026-05-05 16:40 | 25.20414 | -97.44193 | 36850 ft | 460 kts | 178° |
| 2026-05-05 16:40 | 25.14029 | -97.43278 | 36855 ft | 460 kts | 178° |
| 2026-05-05 16:41 | 25.07697 | -97.42372 | 36848 ft | 460 kts | 178° |
| 2026-05-05 16:41 | 25.01314 | -97.41459 | 36852 ft | 459 kts | 178° |
| 2026-05-05 16:42 | 24.95010 | -97.40547 | 36853 ft | 459 kts | 178° |
| 2026-05-05 16:42 | 24.88651 | -97.39625 | 36851 ft | 460 kts | 178° |
| 2026-05-05 16:43 | 24.82286 | -97.38701 | 36852 ft | 460 kts | 178° |
| 2026-05-05 16:43 | 24.75969 | -97.37781 | 36851 ft | 460 kts | 178° |
| 2026-05-05 16:44 | 24.69614 | -97.36859 | 36852 ft | 460 kts | 178° |
| 2026-05-05 16:44 | 24.63300 | -97.35946 | 36852 ft | 460 kts | 178° |
| 2026-05-05 16:45 | 24.56927 | -97.35025 | 36853 ft | 460 kts | 178° |
| 2026-05-05 16:45 | 24.50607 | -97.34114 | 36855 ft | 460 kts | 178° |
| 2026-05-05 16:46 | 24.44245 | -97.33207 | 36857 ft | 461 kts | 178° |
| 2026-05-05 16:46 | 24.37861 | -97.32305 | 36846 ft | 461 kts | 178° |
| 2026-05-05 16:47 | 24.31526 | -97.31410 | 36848 ft | 461 kts | 178° |
| 2026-05-05 16:47 | 24.25153 | -97.30509 | 36852 ft | 461 kts | 177° |
| 2026-05-05 16:48 | 24.18776 | -97.29628 | 36849 ft | 461 kts | 178° |
| 2026-05-05 16:48 | 24.12439 | -97.28704 | 36861 ft | 465 kts | 176° |
| 2026-05-05 16:49 | 24.06029 | -97.27769 | 36855 ft | 464 kts | 177° |
| 2026-05-05 16:49 | 23.99608 | -97.26883 | 36850 ft | 463 kts | 178° |
| 2026-05-05 16:50 | 23.93247 | -97.25998 | 36852 ft | 464 kts | 177° |
| 2026-05-05 16:50 | 23.86833 | -97.25099 | 36858 ft | 464 kts | 177° |
| 2026-05-05 16:51 | 23.80415 | -97.24191 | 36855 ft | 464 kts | 177° |
| 2026-05-05 16:51 | 23.74052 | -97.23296 | 36863 ft | 463 kts | 177° |
| 2026-05-05 16:52 | 23.67647 | -97.22400 | 36856 ft | 463 kts | 177° |
| 2026-05-05 16:52 | 23.61293 | -97.21508 | 36849 ft | 462 kts | 177° |
| 2026-05-05 16:53 | 23.54917 | -97.20613 | 36852 ft | 462 kts | 177° |
| 2026-05-05 16:53 | 23.48540 | -97.19720 | 36852 ft | 461 kts | 177° |
| 2026-05-05 16:54 | 23.42162 | -97.18827 | 36853 ft | 461 kts | 176° |
| 2026-05-05 16:54 | 23.35779 | -97.17935 | 36852 ft | 461 kts | 177° |
| 2026-05-05 16:55 | 23.29397 | -97.17042 | 36849 ft | 462 kts | 176° |
| 2026-05-05 16:55 | 23.23067 | -97.16160 | 36852 ft | 462 kts | 176° |
| 2026-05-05 16:56 | 23.16685 | -97.15272 | 36851 ft | 462 kts | 176° |
| 2026-05-05 16:56 | 23.10312 | -97.14206 | 36855 ft | 465 kts | 172° |
| 2026-05-05 16:57 | 23.03931 | -97.12707 | 36856 ft | 466 kts | 171° |
| 2026-05-05 16:57 | 22.97648 | -97.11178 | 36862 ft | 466 kts | 171° |
| 2026-05-05 16:58 | 22.91311 | -97.09672 | 36861 ft | 466 kts | 171° |
| 2026-05-05 16:58 | 22.84967 | -97.08189 | 36863 ft | 466 kts | 171° |
| 2026-05-05 16:59 | 22.78614 | -97.06714 | 36858 ft | 467 kts | 171° |
| 2026-05-05 16:59 | 22.72260 | -97.05238 | 36863 ft | 467 kts | 171° |
| 2026-05-05 17:00 | 22.65897 | -97.03761 | 36862 ft | 467 kts | 171° |
| 2026-05-05 17:00 | 22.59573 | -97.02292 | 36859 ft | 467 kts | 171° |
| 2026-05-05 17:01 | 22.53216 | -97.00819 | 36861 ft | 467 kts | 171° |
| 2026-05-05 17:01 | 22.46853 | -96.99345 | 36862 ft | 467 kts | 171° |
| 2026-05-05 17:02 | 22.40490 | -96.97873 | 36857 ft | 467 kts | 171° |
| 2026-05-05 17:02 | 22.34136 | -96.96404 | 36863 ft | 467 kts | 171° |
| 2026-05-05 17:03 | 22.28857 | -96.95184 | 36857 ft | 467 kts | 171° |
| 2026-05-05 17:03 | 22.22508 | -96.93718 | 36859 ft | 466 kts | 171° |
| 2026-05-05 17:04 | 22.16184 | -96.92260 | 36852 ft | 466 kts | 171° |
| 2026-05-05 17:04 | 22.09835 | -96.90797 | 36849 ft | 466 kts | 171° |
| 2026-05-05 17:05 | 22.03492 | -96.89338 | 36851 ft | 466 kts | 171° |
| 2026-05-05 17:05 | 21.97144 | -96.87880 | 36851 ft | 466 kts | 170° |
| 2026-05-05 17:06 | 21.90808 | -96.86424 | 36846 ft | 466 kts | 170° |
| 2026-05-05 17:06 | 21.84459 | -96.84967 | 36842 ft | 467 kts | 170° |
| 2026-05-05 17:07 | 21.78108 | -96.83510 | 36843 ft | 467 kts | 170° |
| 2026-05-05 17:07 | 21.71756 | -96.82055 | 36840 ft | 467 kts | 170° |
| 2026-05-05 17:08 | 21.65382 | -96.80559 | 36847 ft | 468 kts | 169° |
| 2026-05-05 17:08 | 21.59072 | -96.78969 | 36843 ft | 468 kts | 169° |
| 2026-05-05 17:09 | 21.52728 | -96.77356 | 36841 ft | 469 kts | 169° |
| 2026-05-05 17:09 | 21.46360 | -96.75752 | 36836 ft | 469 kts | 169° |
| 2026-05-05 17:10 | 21.39996 | -96.74159 | 36837 ft | 469 kts | 169° |
| 2026-05-05 17:10 | 21.33640 | -96.72571 | 36832 ft | 469 kts | 169° |
| 2026-05-05 17:11 | 21.27287 | -96.70986 | 36833 ft | 469 kts | 169° |
| 2026-05-05 17:11 | 21.20939 | -96.69402 | 36834 ft | 468 kts | 169° |
| 2026-05-05 17:12 | 21.14644 | -96.67832 | 36833 ft | 467 kts | 169° |
| 2026-05-05 17:12 | 21.08309 | -96.66254 | 36835 ft | 467 kts | 169° |
| 2026-05-05 17:13 | 21.01964 | -96.64675 | 36818 ft | 468 kts | 169° |
| 2026-05-05 17:13 | 20.95617 | -96.63096 | 36825 ft | 467 kts | 169° |
| 2026-05-05 17:14 | 20.89280 | -96.61523 | 36830 ft | 467 kts | 169° |
| 2026-05-05 17:14 | 20.82984 | -96.59960 | 36817 ft | 467 kts | 168° |
| 2026-05-05 17:15 | 20.76652 | -96.58390 | 36817 ft | 467 kts | 168° |
| 2026-05-05 17:15 | 20.70314 | -96.56830 | 36826 ft | 468 kts | 168° |
| 2026-05-05 17:16 | 20.63969 | -96.55275 | 36815 ft | 467 kts | 168° |
| 2026-05-05 17:16 | 20.57628 | -96.53721 | 36830 ft | 468 kts | 168° |
| 2026-05-05 17:17 | 20.51281 | -96.52167 | 36842 ft | 467 kts | 168° |
| 2026-05-05 17:17 | 20.44936 | -96.50613 | 36842 ft | 468 kts | 168° |
| 2026-05-05 17:18 | 20.38591 | -96.49060 | 36845 ft | 468 kts | 168° |
| 2026-05-05 17:18 | 20.32222 | -96.47502 | 36845 ft | 468 kts | 168° |
| 2026-05-05 17:19 | 20.25913 | -96.45961 | 36847 ft | 469 kts | 168° |
| 2026-05-05 17:19 | 20.19551 | -96.44408 | 36852 ft | 469 kts | 168° |
| 2026-05-05 17:20 | 20.13194 | -96.42857 | 36853 ft | 469 kts | 168° |
| 2026-05-05 17:20 | 20.06826 | -96.41306 | 36852 ft | 469 kts | 168° |
| 2026-05-05 17:21 | 20.00468 | -96.39758 | 36875 ft | 468 kts | 168° |
| 2026-05-05 17:22 | 19.90990 | -96.37453 | 36880 ft | 468 kts | 168° |
| 2026-05-05 17:22 | 19.84630 | -96.35907 | 36880 ft | 468 kts | 168° |
| 2026-05-05 17:23 | 19.78269 | -96.34363 | 36877 ft | 468 kts | 168° |
| 2026-05-05 17:23 | 19.71905 | -96.32819 | 36870 ft | 468 kts | 168° |
| 2026-05-05 17:24 | 19.65559 | -96.31281 | 36867 ft | 468 kts | 168° |
| 2026-05-05 17:24 | 19.59230 | -96.29749 | 36868 ft | 469 kts | 168° |
| 2026-05-05 17:25 | 19.52861 | -96.28208 | 36858 ft | 469 kts | 168° |
| 2026-05-05 17:25 | 19.46506 | -96.26670 | 36861 ft | 468 kts | 168° |
| 2026-05-05 17:26 | 19.40145 | -96.25134 | 36852 ft | 468 kts | 168° |
| 2026-05-05 17:26 | 19.33787 | -96.23599 | 36851 ft | 467 kts | 168° |
| 2026-05-05 17:27 | 19.27474 | -96.22076 | 36847 ft | 467 kts | 168° |
| 2026-05-05 17:27 | 19.21147 | -96.20550 | 36848 ft | 466 kts | 168° |
| 2026-05-05 17:28 | 19.15067 | -96.18211 | 36852 ft | 466 kts | 146° |
| 2026-05-05 17:28 | 19.12576 | -96.16092 | 36833 ft | 464 kts | 133° |
| 2026-05-05 17:28 | 19.10574 | -96.13399 | 36855 ft | 462 kts | 123° |
| 2026-05-05 17:29 | 19.07051 | -96.07730 | 36847 ft | 462 kts | 122° |
| 2026-05-05 17:29 | 19.03491 | -96.02033 | 36838 ft | 463 kts | 123° |
| 2026-05-05 17:30 | 18.99898 | -95.96405 | 36843 ft | 463 kts | 123° |
| 2026-05-05 17:30 | 18.96279 | -95.90774 | 36838 ft | 463 kts | 123° |
| 2026-05-05 17:31 | 18.92676 | -95.85166 | 36849 ft | 462 kts | 123° |
| 2026-05-05 17:31 | 18.89059 | -95.79539 | 36849 ft | 462 kts | 123° |
| 2026-05-05 17:32 | 18.85458 | -95.73938 | 36852 ft | 461 kts | 123° |
| 2026-05-05 17:32 | 18.81844 | -95.68318 | 36853 ft | 460 kts | 123° |
| 2026-05-05 17:33 | 18.78247 | -95.62732 | 36860 ft | 460 kts | 123° |
| 2026-05-05 17:33 | 18.74648 | -95.57145 | 36862 ft | 460 kts | 123° |
| 2026-05-05 17:34 | 18.71049 | -95.51563 | 36862 ft | 460 kts | 123° |
| 2026-05-05 17:34 | 18.67448 | -95.45984 | 36862 ft | 459 kts | 123° |
| 2026-05-05 17:35 | 18.63851 | -95.40415 | 36869 ft | 459 kts | 123° |
| 2026-05-05 17:35 | 18.60250 | -95.34844 | 36866 ft | 460 kts | 123° |
| 2026-05-05 17:36 | 18.56657 | -95.29290 | 36873 ft | 460 kts | 123° |
| 2026-05-05 17:36 | 18.53044 | -95.23717 | 36872 ft | 460 kts | 123° |
| 2026-05-05 17:37 | 18.49423 | -95.18146 | 36865 ft | 461 kts | 123° |
| 2026-05-05 17:37 | 18.45788 | -95.12557 | 36864 ft | 461 kts | 123° |
| 2026-05-05 17:38 | 18.42155 | -95.06973 | 36857 ft | 461 kts | 123° |
| 2026-05-05 17:38 | 18.38543 | -95.01424 | 36859 ft | 460 kts | 122° |
| 2026-05-05 17:39 | 18.34927 | -94.95874 | 36855 ft | 461 kts | 122° |
| 2026-05-05 17:39 | 18.31288 | -94.90295 | 36854 ft | 460 kts | 122° |
| 2026-05-05 17:40 | 18.27664 | -94.84742 | 36851 ft | 460 kts | 122° |
| 2026-05-05 17:40 | 18.24057 | -94.79221 | 36848 ft | 460 kts | 122° |
| 2026-05-05 17:41 | 18.20430 | -94.73672 | 36843 ft | 460 kts | 122° |
| 2026-05-05 17:41 | 18.16805 | -94.68133 | 36843 ft | 460 kts | 122° |
| 2026-05-05 17:42 | 18.13174 | -94.62588 | 36837 ft | 460 kts | 122° |
| 2026-05-05 17:42 | 18.09389 | -94.57156 | 36839 ft | 462 kts | 131° |
| 2026-05-05 17:43 | 18.04815 | -94.52403 | 36841 ft | 463 kts | 134° |
| 2026-05-05 17:43 | 18.00144 | -94.47730 | 36840 ft | 463 kts | 134° |
| 2026-05-05 17:44 | 17.95502 | -94.43042 | 36845 ft | 463 kts | 134° |
| 2026-05-05 17:44 | 17.90911 | -94.38361 | 36838 ft | 462 kts | 133° |
| 2026-05-05 17:45 | 17.86307 | -94.33653 | 36845 ft | 463 kts | 133° |
| 2026-05-05 17:45 | 17.81691 | -94.28935 | 36854 ft | 462 kts | 133° |
| 2026-05-05 17:46 | 17.77077 | -94.24226 | 36857 ft | 463 kts | 133° |
| 2026-05-05 17:46 | 17.73240 | -94.20314 | 36848 ft | 463 kts | 133° |
| 2026-05-05 17:47 | 17.68619 | -94.15605 | 36850 ft | 463 kts | 133° |
| 2026-05-05 17:47 | 17.64002 | -94.10904 | 36867 ft | 462 kts | 134° |
| 2026-05-05 17:48 | 17.59384 | -94.06206 | 36856 ft | 462 kts | 133° |
| 2026-05-05 17:48 | 17.54769 | -94.01514 | 36871 ft | 461 kts | 133° |
| 2026-05-05 17:49 | 17.50164 | -93.96833 | 36875 ft | 461 kts | 133° |
| 2026-05-05 17:49 | 17.45590 | -93.92190 | 36869 ft | 461 kts | 133° |
| 2026-05-05 17:50 | 17.40979 | -93.87513 | 36879 ft | 461 kts | 133° |
| 2026-05-05 17:50 | 17.36368 | -93.82839 | 36878 ft | 461 kts | 133° |
| 2026-05-05 17:51 | 17.31753 | -93.78164 | 36877 ft | 461 kts | 133° |
| 2026-05-05 17:51 | 17.27171 | -93.73525 | 36866 ft | 460 kts | 133° |
| 2026-05-05 17:52 | 17.22558 | -93.68859 | 36871 ft | 460 kts | 133° |
| 2026-05-05 17:52 | 17.17954 | -93.64206 | 36877 ft | 459 kts | 133° |
| 2026-05-05 17:53 | 17.13369 | -93.59575 | 36881 ft | 458 kts | 133° |
| 2026-05-05 17:53 | 17.08788 | -93.54951 | 36891 ft | 458 kts | 133° |
| 2026-05-05 17:54 | 17.04227 | -93.50351 | 36893 ft | 457 kts | 133° |
| 2026-05-05 17:54 | 16.99649 | -93.45736 | 36894 ft | 457 kts | 133° |
| 2026-05-05 17:55 | 16.95074 | -93.41128 | 36896 ft | 456 kts | 133° |
| 2026-05-05 17:55 | 16.90503 | -93.36525 | 36905 ft | 456 kts | 133° |
| 2026-05-05 17:56 | 16.85931 | -93.31927 | 36904 ft | 456 kts | 133° |
| 2026-05-05 17:56 | 16.81357 | -93.27334 | 36896 ft | 456 kts | 133° |
| 2026-05-05 17:57 | 16.76787 | -93.22744 | 36911 ft | 456 kts | 133° |
| 2026-05-05 17:57 | 16.72217 | -93.18156 | 36902 ft | 456 kts | 133° |
| 2026-05-05 17:58 | 16.67645 | -93.13570 | 36896 ft | 455 kts | 133° |
| 2026-05-05 17:58 | 16.63084 | -93.08997 | 36915 ft | 454 kts | 133° |
| 2026-05-05 17:59 | 16.58556 | -93.04460 | 36911 ft | 455 kts | 133° |
| 2026-05-05 17:59 | 16.54253 | -92.99616 | 36913 ft | 451 kts | 126° |
| 2026-05-05 18:00 | 16.50349 | -92.94549 | 36910 ft | 451 kts | 125° |
| 2026-05-05 18:00 | 16.46412 | -92.89450 | 36897 ft | 452 kts | 125° |
| 2026-05-05 18:01 | 16.42424 | -92.84370 | 36900 ft | 452 kts | 126° |
| 2026-05-05 18:01 | 16.38424 | -92.79306 | 36900 ft | 453 kts | 126° |
| 2026-05-05 18:02 | 16.34413 | -92.74227 | 36895 ft | 454 kts | 126° |
| 2026-05-05 18:02 | 16.30421 | -92.69177 | 36885 ft | 454 kts | 126° |
| 2026-05-05 18:03 | 16.26403 | -92.64103 | 36881 ft | 453 kts | 125° |
| 2026-05-05 18:03 | 16.22397 | -92.59051 | 36890 ft | 452 kts | 125° |
| 2026-05-05 18:04 | 16.18385 | -92.53991 | 36882 ft | 452 kts | 125° |
| 2026-05-05 18:04 | 16.14409 | -92.48978 | 36873 ft | 452 kts | 125° |
| 2026-05-05 18:05 | 16.10407 | -92.43938 | 36875 ft | 451 kts | 125° |
| 2026-05-05 18:05 | 16.06410 | -92.38906 | 36881 ft | 450 kts | 125° |
| 2026-05-05 18:06 | 16.02417 | -92.33882 | 36877 ft | 450 kts | 125° |
| 2026-05-05 18:06 | 15.98453 | -92.28898 | 36877 ft | 450 kts | 125° |
| 2026-05-05 18:07 | 15.94457 | -92.23878 | 36879 ft | 450 kts | 125° |
| 2026-05-05 18:07 | 15.90457 | -92.18855 | 36885 ft | 451 kts | 125° |
| 2026-05-05 18:07 | 15.88450 | -92.16338 | 36703 ft | 454 kts | 125° |
| 2026-05-05 18:08 | 15.86422 | -92.13792 | 36208 ft | 457 kts | 125° |
| 2026-05-05 18:08 | 15.84423 | -92.11286 | 35663 ft | 455 kts | 125° |
| 2026-05-05 18:08 | 15.82405 | -92.08759 | 35250 ft | 451 kts | 125° |
| 2026-05-05 18:08 | 15.80405 | -92.06255 | 34795 ft | 447 kts | 125° |
| 2026-05-05 18:09 | 15.78426 | -92.03777 | 34369 ft | 444 kts | 125° |
| 2026-05-05 18:09 | 15.76461 | -92.01315 | 33944 ft | 441 kts | 125° |
| 2026-05-05 18:09 | 15.74511 | -91.98871 | 33517 ft | 438 kts | 125° |
| 2026-05-05 18:09 | 15.72576 | -91.96450 | 33100 ft | 435 kts | 125° |
| 2026-05-05 18:10 | 15.70655 | -91.94027 | 32664 ft | 431 kts | 123° |
| 2026-05-05 18:10 | 15.68896 | -91.91540 | 32288 ft | 425 kts | 120° |
| 2026-05-05 18:10 | 15.67272 | -91.89045 | 31877 ft | 421 kts | 119° |
| 2026-05-05 18:10 | 15.65662 | -91.86501 | 31465 ft | 418 kts | 119° |
| 2026-05-05 18:11 | 15.64072 | -91.83990 | 31043 ft | 415 kts | 119° |
| 2026-05-05 18:11 | 15.62483 | -91.81502 | 30645 ft | 412 kts | 120° |
| 2026-05-05 18:11 | 15.60898 | -91.79046 | 30247 ft | 410 kts | 120° |
| 2026-05-05 18:11 | 15.59298 | -91.76586 | 29832 ft | 408 kts | 120° |
| 2026-05-05 18:12 | 15.57717 | -91.74166 | 29426 ft | 405 kts | 120° |
| 2026-05-05 18:12 | 15.56140 | -91.71759 | 29014 ft | 402 kts | 120° |
| 2026-05-05 18:12 | 15.54583 | -91.69387 | 28598 ft | 400 kts | 120° |
| 2026-05-05 18:12 | 15.53021 | -91.67007 | 28182 ft | 397 kts | 120° |
| 2026-05-05 18:13 | 15.51475 | -91.64648 | 27810 ft | 394 kts | 120° |
| 2026-05-05 18:13 | 15.49936 | -91.62305 | 27406 ft | 391 kts | 120° |
| 2026-05-05 18:13 | 15.48411 | -91.59985 | 27012 ft | 388 kts | 120° |
| 2026-05-05 18:13 | 15.46896 | -91.57680 | 26606 ft | 385 kts | 120° |
| 2026-05-05 18:14 | 15.45390 | -91.55387 | 26195 ft | 382 kts | 120° |
| 2026-05-05 18:14 | 15.43901 | -91.53123 | 25801 ft | 378 kts | 120° |
| 2026-05-05 18:14 | 15.42447 | -91.50911 | 25399 ft | 373 kts | 120° |
| 2026-05-05 18:14 | 15.40990 | -91.48695 | 25041 ft | 368 kts | 120° |
| 2026-05-05 18:15 | 15.39545 | -91.46498 | 24656 ft | 365 kts | 120° |
| 2026-05-05 18:15 | 15.38131 | -91.44347 | 24260 ft | 362 kts | 119° |
| 2026-05-05 18:15 | 15.36721 | -91.42204 | 23905 ft | 357 kts | 120° |
| 2026-05-05 18:15 | 15.35325 | -91.40081 | 23524 ft | 354 kts | 120° |
| 2026-05-05 18:16 | 15.33939 | -91.37975 | 23159 ft | 351 kts | 120° |
| 2026-05-05 18:16 | 15.32564 | -91.35887 | 22777 ft | 349 kts | 120° |
| 2026-05-05 18:16 | 15.31215 | -91.33839 | 22413 ft | 347 kts | 120° |
| 2026-05-05 18:16 | 15.29861 | -91.31786 | 22101 ft | 345 kts | 120° |
| 2026-05-05 18:17 | 15.28509 | -91.29737 | 21847 ft | 343 kts | 120° |
| 2026-05-05 18:17 | 15.27155 | -91.27683 | 21579 ft | 343 kts | 120° |
| 2026-05-05 18:17 | 15.25829 | -91.25672 | 21234 ft | 340 kts | 120° |
| 2026-05-05 18:17 | 15.24495 | -91.23650 | 20875 ft | 339 kts | 121° |
| 2026-05-05 18:18 | 15.23165 | -91.21639 | 20505 ft | 337 kts | 121° |
| 2026-05-05 18:18 | 15.21842 | -91.19634 | 20147 ft | 335 kts | 121° |
| 2026-05-05 18:18 | 15.20549 | -91.17673 | 19788 ft | 333 kts | 121° |
| 2026-05-05 18:18 | 15.19243 | -91.15696 | 19440 ft | 331 kts | 121° |
| 2026-05-05 18:19 | 15.17942 | -91.13724 | 19061 ft | 330 kts | 121° |
| 2026-05-05 18:19 | 15.16644 | -91.11758 | 18701 ft | 329 kts | 121° |
| 2026-05-05 18:19 | 15.15366 | -91.09824 | 18354 ft | 328 kts | 121° |
| 2026-05-05 18:19 | 15.14082 | -91.07882 | 17992 ft | 327 kts | 121° |
| 2026-05-05 18:20 | 15.12750 | -91.05981 | 17622 ft | 328 kts | 129° |
| 2026-05-05 18:20 | 15.11028 | -91.04419 | 17276 ft | 329 kts | 139° |
| 2026-05-05 18:20 | 15.09194 | -91.02980 | 16915 ft | 329 kts | 140° |
| 2026-05-05 18:20 | 15.07358 | -91.01564 | 16565 ft | 329 kts | 140° |
| 2026-05-05 18:21 | 15.05518 | -91.00145 | 16168 ft | 330 kts | 140° |
| 2026-05-05 18:21 | 15.03695 | -90.98728 | 15672 ft | 333 kts | 140° |
| 2026-05-05 18:21 | 15.01844 | -90.97281 | 15311 ft | 331 kts | 140° |
| 2026-05-05 18:21 | 15.00014 | -90.95844 | 14946 ft | 330 kts | 140° |
| 2026-05-05 18:22 | 14.98180 | -90.94400 | 14566 ft | 330 kts | 140° |
| 2026-05-05 18:22 | 14.96350 | -90.92956 | 14209 ft | 328 kts | 140° |
| 2026-05-05 18:22 | 14.94551 | -90.91535 | 13856 ft | 327 kts | 141° |
| 2026-05-05 18:22 | 14.92644 | -90.90257 | 13499 ft | 327 kts | 148° |
| 2026-05-05 18:23 | 14.90652 | -90.89105 | 13127 ft | 324 kts | 149° |
| 2026-05-05 18:23 | 14.88680 | -90.87992 | 12768 ft | 322 kts | 149° |
| 2026-05-05 18:23 | 14.86715 | -90.86890 | 12456 ft | 320 kts | 149° |
| 2026-05-05 18:23 | 14.84784 | -90.85804 | 12106 ft | 319 kts | 149° |
| 2026-05-05 18:24 | 14.82838 | -90.84708 | 11767 ft | 317 kts | 149° |
| 2026-05-05 18:24 | 14.80902 | -90.83619 | 11433 ft | 315 kts | 149° |
| 2026-05-05 18:24 | 14.79032 | -90.82560 | 11086 ft | 314 kts | 149° |
| 2026-05-05 18:24 | 14.77144 | -90.81484 | 10753 ft | 312 kts | 149° |
| 2026-05-05 18:25 | 14.75270 | -90.80351 | 10433 ft | 309 kts | 147° |
| 2026-05-05 18:25 | 14.74673 | -90.79971 | 10309 ft | 309 kts | 147° |
| 2026-05-05 18:25 | 14.71711 | -90.78038 | 10061 ft | 295 kts | 146° |
| 2026-05-05 18:25 | 14.70002 | -90.76917 | 9918 ft | 287 kts | 147° |
| 2026-05-05 18:26 | 14.68336 | -90.75817 | 9712 ft | 281 kts | 146° |
| 2026-05-05 18:26 | 14.66698 | -90.74733 | 9457 ft | 278 kts | 146° |
| 2026-05-05 18:26 | 14.65091 | -90.73665 | 9176 ft | 276 kts | 146° |
| 2026-05-05 18:26 | 14.63480 | -90.72590 | 8888 ft | 274 kts | 147° |
| 2026-05-05 18:27 | 14.61898 | -90.71527 | 8623 ft | 272 kts | 146° |
| 2026-05-05 18:27 | 14.60314 | -90.70455 | 8357 ft | 270 kts | 147° |
| 2026-05-05 18:27 | 14.58767 | -90.69401 | 8256 ft | 262 kts | 146° |
| 2026-05-05 18:27 | 14.57334 | -90.68280 | 8112 ft | 255 kts | 131° |
| 2026-05-05 18:28 | 14.54875 | -90.65834 | 7938 ft | 238 kts | 143° |
| 2026-05-05 18:28 | 14.53561 | -90.64799 | 7842 ft | 237 kts | 143° |
| 2026-05-05 18:28 | 14.52264 | -90.63781 | 7750 ft | 237 kts | 143° |
| 2026-05-05 18:29 | 14.50919 | -90.62734 | 7563 ft | 243 kts | 143° |
| 2026-05-05 18:29 | 14.49571 | -90.61702 | 7373 ft | 243 kts | 143° |
| 2026-05-05 18:29 | 14.48236 | -90.60681 | 7361 ft | 234 kts | 139° |
| 2026-05-05 18:29 | 14.47233 | -90.59387 | 7350 ft | 229 kts | 120° |
| 2026-05-05 18:30 | 14.46607 | -90.57870 | 7331 ft | 233 kts | 94° |
| 2026-05-05 18:30 | 14.46967 | -90.56291 | 7354 ft | 225 kts | 55° |
| 2026-05-05 18:30 | 14.48159 | -90.55357 | 7261 ft | 219 kts | 18° |
| 2026-05-05 18:30 | 14.49682 | -90.55327 | 6819 ft | 222 kts | 352° |
| 2026-05-05 18:31 | 14.51174 | -90.55162 | 6565 ft | 212 kts | 27° |
| 2026-05-05 18:31 | 14.52469 | -90.54484 | 6288 ft | 208 kts | 24° |
| 2026-05-05 18:31 | 14.53790 | -90.53967 | 6033 ft | 204 kts | 19° |
| 2026-05-05 18:31 | 14.55186 | -90.53654 | 5429 ft | 207 kts | 7° |
| 2026-05-05 18:32 | 14.56600 | -90.53409 | 5055 ft | 199 kts | 19° |
| 2026-05-05 18:32 | 14.57428 | -90.53064 | 4899 ft | 185 kts | 22° |
| 2026-05-05 18:32 | 14.58839 | -90.52574 | 4931 ft | 137 kts | 15° |
| 2026-05-05 18:32 | 14.59308 | -90.52423 | 4951 ft | 54 kts | 18° |
| 2026-05-05 18:33 | 14.59544 | -90.52358 | 4957 ft | 24 kts | 352° |
| 2026-05-05 18:33 | 14.59568 | -90.52417 | 4958 ft | 8 kts | 212° |
| 2026-05-05 18:33 | 14.59516 | -90.52434 | 4958 ft | 8 kts | 197° |
| 2026-05-05 18:33 | 14.59464 | -90.52451 | 4954 ft | 8 kts | 197° |
| 2026-05-05 18:34 | 14.59428 | -90.52463 | 4955 ft | 0 kts | 197° |
| 2026-05-05 18:34 | 14.59427 | -90.52463 | 4955 ft | 0 kts | 197° |
| 2026-05-05 18:34 | 14.59418 | -90.52466 | 4955 ft | 3 kts | 197° |
| 2026-05-05 18:34 | 14.59396 | -90.52473 | 4954 ft | 4 kts | 198° |
| 2026-05-05 18:35 | 14.59358 | -90.52486 | 4952 ft | 7 kts | 198° |
| 2026-05-05 18:35 | 14.59288 | -90.52509 | 4949 ft | 14 kts | 197° |
| 2026-05-05 18:35 | 14.59188 | -90.52541 | 4945 ft | 16 kts | 197° |
| 2026-05-05 18:35 | 14.59086 | -90.52574 | 4941 ft | 15 kts | 197° |
| 2026-05-05 18:36 | 14.58982 | -90.52606 | 4936 ft | 16 kts | 198° |
| 2026-05-05 18:36 | 14.58869 | -90.52644 | 4931 ft | 17 kts | 197° |
| 2026-05-05 18:36 | 14.58757 | -90.52679 | 4927 ft | 17 kts | 197° |
| 2026-05-05 18:36 | 14.58647 | -90.52715 | 4922 ft | 16 kts | 198° |
| 2026-05-05 18:37 | 14.58543 | -90.52749 | 4918 ft | 15 kts | 197° |
| 2026-05-05 18:37 | 14.58503 | -90.52796 | 4918 ft | 9 kts | 280° |
| 2026-05-05 18:37 | 14.58520 | -90.52855 | 4919 ft | 5 kts | 287° |
| 2026-05-05 18:37 | 14.58524 | -90.52869 | 4919 ft | 0 kts | 287° |